createdAt,value
2022-12-23T00:00:28.064Z,10.08
2022-12-23T00:02:54.543Z,10.09
2022-12-23T00:05:21.001Z,10.07
2022-12-23T00:07:47.311Z,10.10
2022-12-23T00:10:13.621Z,10.09
2022-12-23T00:12:39.913Z,10.09
2022-12-23T00:15:07.746Z,10.13
2022-12-23T00:17:36.663Z,10.15
2022-12-23T00:20:04.021Z,10.18
2022-12-23T00:22:30.336Z,10.19
2022-12-23T00:24:56.656Z,10.19
2022-12-23T00:27:22.943Z,10.22
2022-12-23T00:29:49.257Z,10.20
2022-12-23T00:32:15.657Z,10.21
2022-12-23T00:34:43.368Z,10.24
2022-12-23T00:37:09.670Z,10.23
2022-12-23T00:39:35.937Z,10.23
2022-12-23T00:42:02.221Z,10.25
2022-12-23T00:44:28.565Z,10.25
2022-12-23T00:46:54.923Z,10.24
2022-12-23T00:49:21.303Z,10.25
2022-12-23T00:51:48.994Z,10.31
2022-12-23T00:54:15.785Z,10.27
2022-12-23T00:56:42.132Z,10.29
2022-12-23T00:59:08.481Z,10.27
2022-12-23T01:01:34.821Z,10.30
2022-12-23T01:04:01.203Z,10.33
2022-12-23T01:06:27.514Z,10.33
2022-12-23T01:08:55.195Z,10.37
2022-12-23T01:11:21.493Z,10.35
2022-12-23T01:13:47.811Z,10.35
2022-12-23T01:16:17.545Z,10.31
2022-12-23T01:18:44.507Z,10.34
2022-12-23T01:21:10.897Z,10.36
2022-12-23T01:23:37.607Z,10.33
2022-12-23T01:26:06.926Z,10.27
2022-12-23T01:28:33.732Z,10.28
2022-12-23T01:31:00.817Z,10.24
2022-12-23T01:33:27.237Z,10.25
2022-12-23T01:35:58.825Z,10.24
2022-12-23T01:38:25.165Z,10.21
2022-12-23T01:40:51.510Z,10.20
2022-12-23T01:43:19.985Z,10.21
2022-12-23T01:45:46.345Z,10.20
2022-12-23T01:48:15.757Z,10.18
2022-12-23T01:50:44.662Z,10.16
2022-12-23T01:53:15.012Z,10.14
2022-12-23T01:55:44.363Z,10.16
2022-12-23T01:58:12.274Z,10.17
2022-12-23T02:00:41.223Z,10.14
2022-12-23T02:03:08.021Z,10.15
2022-12-23T02:05:34.598Z,10.13
2022-12-23T02:08:00.976Z,10.13
2022-12-23T02:10:31.783Z,10.16
2022-12-23T02:13:00.608Z,10.20
2022-12-23T02:15:32.059Z,10.17
2022-12-23T02:18:05.496Z,10.23
2022-12-23T02:20:46.762Z,10.18
2022-12-23T02:23:26.268Z,10.20
2022-12-23T02:26:00.449Z,10.25
2022-12-23T02:28:43.716Z,10.21
2022-12-23T02:31:17.599Z,10.16
2022-12-23T02:33:50.656Z,10.19
2022-12-23T02:36:22.975Z,10.23
2022-12-23T02:38:54.810Z,10.25
2022-12-23T02:41:24.700Z,10.21
2022-12-23T02:43:56.903Z,10.21
2022-12-23T02:46:28.788Z,10.24
2022-12-23T02:48:57.249Z,10.20
2022-12-23T02:51:26.864Z,10.24
2022-12-23T02:53:55.607Z,10.25
2022-12-23T02:56:23.613Z,10.23
2022-12-23T02:58:51.232Z,10.27
2022-12-23T03:01:18.302Z,10.24
2022-12-23T03:03:47.352Z,10.22
2022-12-23T03:06:17.138Z,10.19
2022-12-23T03:08:44.028Z,10.19
2022-12-23T03:11:11.902Z,10.25
2022-12-23T03:13:46.402Z,10.24
2022-12-23T03:16:19.922Z,10.21
2022-12-23T03:18:56.796Z,10.20
2022-12-23T03:21:26.369Z,10.19
2022-12-23T03:23:55.965Z,10.13
2022-12-23T03:26:26.512Z,10.10
2022-12-23T03:28:55.855Z,10.10
2022-12-23T03:31:24.141Z,10.11
2022-12-23T03:33:55.148Z,10.15
2022-12-23T03:36:23.394Z,10.08
2022-12-23T03:38:50.684Z,10.08
2022-12-23T03:41:19.450Z,10.10
2022-12-23T03:43:51.009Z,10.08
2022-12-23T03:46:19.970Z,10.09
2022-12-23T03:48:48.569Z,10.06
2022-12-23T03:51:18.104Z,10.10
2022-12-23T03:53:46.745Z,10.08
2022-12-23T03:56:15.184Z,10.09
2022-12-23T03:58:44.842Z,10.07
2022-12-23T04:01:17.937Z,10.07
2022-12-23T04:03:49.658Z,10.08
2022-12-23T04:06:19.661Z,10.04
2022-12-23T04:08:47.133Z,10.04
2022-12-23T04:11:13.539Z,10.03
2022-12-23T04:13:39.948Z,10.00
2022-12-23T04:16:07.052Z,10.01
2022-12-23T04:18:33.608Z,10.03
2022-12-23T04:20:59.923Z,10.00
2022-12-23T04:23:27.544Z,10.13
2022-12-23T04:25:53.877Z,10.01
2022-12-23T04:28:20.192Z,10.01
2022-12-23T04:30:46.519Z,10.04
2022-12-23T04:33:13.107Z,10.02
2022-12-23T04:35:39.667Z,10.01
2022-12-23T04:38:06.029Z,9.99
2022-12-23T04:40:33.705Z,10.10
2022-12-23T04:42:59.999Z,10.02
2022-12-23T04:45:26.408Z,9.99
2022-12-23T04:47:52.744Z,10.02
2022-12-23T04:50:19.106Z,9.95
2022-12-23T04:52:45.446Z,9.99
2022-12-23T04:55:11.724Z,10.00
2022-12-23T04:57:39.375Z,9.97
2022-12-23T05:00:06.407Z,10.02
2022-12-23T05:02:32.835Z,9.96
2022-12-23T05:04:59.244Z,9.97
2022-12-23T05:07:25.570Z,9.96
2022-12-23T05:09:51.943Z,9.91
2022-12-23T05:12:18.295Z,9.94
2022-12-23T05:14:45.956Z,9.90
2022-12-23T05:17:12.293Z,9.91
2022-12-23T05:19:38.624Z,9.91
2022-12-23T05:22:04.954Z,9.91
2022-12-23T05:24:31.311Z,9.89
2022-12-23T05:27:00.108Z,9.91
2022-12-23T05:29:26.923Z,9.92
2022-12-23T05:31:54.660Z,9.94
2022-12-23T05:34:21.452Z,9.91
2022-12-23T05:36:47.802Z,9.91
2022-12-23T05:39:14.215Z,9.88
2022-12-23T05:41:40.603Z,9.89
2022-12-23T05:44:06.941Z,9.88
2022-12-23T05:46:33.596Z,9.86
2022-12-23T05:49:01.406Z,9.88
2022-12-23T05:51:27.722Z,9.86
2022-12-23T05:53:54.009Z,9.91
2022-12-23T05:56:20.365Z,9.88
2022-12-23T05:58:46.691Z,9.89
2022-12-23T06:01:14.268Z,9.86
2022-12-23T06:03:40.678Z,9.93
2022-12-23T06:06:08.497Z,9.92
2022-12-23T06:08:34.876Z,9.86
2022-12-23T06:11:03.774Z,9.86
2022-12-23T06:13:30.106Z,9.85
2022-12-23T06:15:56.741Z,9.83
2022-12-23T06:18:23.041Z,9.85
2022-12-23T06:20:49.350Z,9.84
2022-12-23T06:23:17.042Z,9.84
2022-12-23T06:25:43.328Z,9.83
2022-12-23T06:28:09.622Z,9.84
2022-12-23T06:30:35.966Z,9.84
2022-12-23T06:33:02.301Z,9.84
2022-12-23T06:35:28.748Z,9.84
2022-12-23T06:37:55.064Z,9.84
2022-12-23T06:40:22.729Z,9.82
2022-12-23T06:42:49.087Z,9.82
2022-12-23T06:45:15.468Z,9.87
2022-12-23T06:47:41.754Z,9.81
2022-12-23T06:50:08.461Z,9.79
2022-12-23T06:52:34.773Z,9.81
2022-12-23T06:55:01.101Z,9.81
2022-12-23T06:57:28.762Z,9.79
2022-12-23T06:59:55.320Z,9.79
2022-12-23T07:02:21.777Z,9.78
2022-12-23T07:04:48.193Z,9.79
2022-12-23T07:07:14.499Z,9.78
2022-12-23T07:09:40.810Z,9.78
2022-12-23T07:12:07.170Z,9.77
2022-12-23T07:14:34.794Z,9.78
2022-12-23T07:17:01.206Z,9.77
2022-12-23T07:19:27.543Z,9.77
2022-12-23T07:21:53.848Z,9.78
2022-12-23T07:24:20.273Z,9.79
2022-12-23T07:26:46.604Z,9.77
2022-12-23T07:29:12.921Z,9.77
2022-12-23T07:31:41.269Z,9.78
2022-12-23T07:34:07.936Z,9.79
2022-12-23T07:36:34.293Z,9.78
2022-12-23T07:39:00.637Z,9.77
2022-12-23T07:41:26.930Z,9.77
2022-12-23T07:43:53.231Z,9.76
2022-12-23T07:46:19.629Z,9.77
2022-12-23T07:48:47.337Z,9.76
2022-12-23T07:51:13.704Z,9.74
2022-12-23T07:53:40.053Z,9.72
2022-12-23T07:56:06.609Z,9.72
2022-12-23T07:58:32.903Z,9.71
2022-12-23T08:01:00.310Z,9.72
2022-12-23T08:03:26.690Z,9.70
2022-12-23T08:06:00.264Z,9.71
2022-12-23T08:08:26.610Z,9.72
2022-12-23T08:10:56.446Z,9.72
2022-12-23T08:13:22.814Z,9.72
2022-12-23T08:15:49.171Z,9.73
2022-12-23T08:18:15.470Z,9.72
2022-12-23T08:20:41.790Z,9.73
2022-12-23T08:23:09.490Z,9.72
2022-12-23T08:25:35.808Z,9.72
2022-12-23T08:28:02.114Z,9.71
2022-12-23T08:30:28.571Z,9.71
2022-12-23T08:32:55.017Z,9.72
2022-12-23T08:35:21.391Z,9.73
2022-12-23T08:37:47.693Z,9.72
2022-12-23T08:40:15.417Z,9.73
2022-12-23T08:42:41.749Z,9.74
2022-12-23T08:45:08.475Z,9.73
2022-12-23T08:47:34.800Z,9.74
2022-12-23T08:50:01.140Z,9.74
2022-12-23T08:52:27.967Z,9.75
2022-12-23T08:54:54.274Z,9.74
2022-12-23T08:57:21.942Z,9.75
2022-12-23T08:59:48.258Z,9.76
2022-12-23T09:02:14.783Z,9.76
2022-12-23T09:04:41.274Z,9.75
2022-12-23T09:07:07.633Z,9.74
2022-12-23T09:09:33.932Z,9.73
2022-12-23T09:12:00.251Z,9.72
2022-12-23T09:14:27.942Z,9.71
2022-12-23T09:16:54.244Z,9.71
2022-12-23T09:19:20.561Z,9.69
2022-12-23T09:21:46.849Z,9.70
2022-12-23T09:24:13.159Z,9.68
2022-12-23T09:26:39.525Z,9.67
2022-12-23T09:29:05.836Z,9.67
2022-12-23T09:31:37.317Z,9.68
2022-12-23T09:34:04.324Z,9.70
2022-12-23T09:36:30.752Z,9.70
2022-12-23T09:38:57.868Z,9.71
2022-12-23T09:41:31.411Z,9.72
2022-12-23T09:44:08.085Z,9.72
2022-12-23T09:46:38.572Z,9.73
2022-12-23T09:49:09.142Z,9.74
2022-12-23T09:51:35.453Z,9.75
2022-12-23T09:54:05.113Z,9.75
2022-12-23T09:56:35.796Z,9.76
2022-12-23T09:59:07.490Z,9.78
2022-12-23T10:01:40.110Z,9.78
2022-12-23T10:04:28.795Z,9.80
2022-12-23T10:07:03.582Z,9.79
2022-12-23T10:09:30.744Z,9.83
2022-12-23T10:11:57.468Z,9.81
2022-12-23T10:14:25.051Z,9.81
2022-12-23T10:16:53.641Z,9.82
2022-12-23T10:19:24.230Z,9.82
2022-12-23T10:21:52.348Z,9.84
2022-12-23T10:24:21.766Z,9.84
2022-12-23T10:26:51.714Z,9.84
2022-12-23T10:29:19.865Z,9.84
2022-12-23T10:31:52.989Z,9.86
2022-12-23T10:34:21.039Z,9.88
2022-12-23T10:36:52.121Z,9.91
2022-12-23T10:39:24.614Z,9.93
2022-12-23T10:41:57.367Z,9.93
2022-12-23T10:44:36.518Z,9.94
2022-12-23T10:47:11.335Z,9.97
2022-12-23T10:49:42.966Z,9.97
2022-12-23T10:52:12.923Z,9.98
2022-12-23T10:54:41.409Z,9.96
2022-12-23T10:57:08.416Z,9.95
2022-12-23T10:59:35.350Z,9.95
2022-12-23T11:02:12.904Z,9.95
2022-12-23T11:04:40.096Z,9.93
2022-12-23T11:07:42.053Z,9.96
2022-12-23T11:09:58.634Z,9.99
2022-12-23T11:12:25.858Z,10.03
2022-12-23T11:14:53.323Z,10.08
2022-12-23T11:17:21.229Z,10.12
2022-12-23T11:19:47.662Z,10.13
2022-12-23T11:22:24.170Z,10.16
2022-12-23T11:24:50.704Z,10.14
2022-12-23T11:27:19.414Z,10.17
2022-12-23T11:29:48.065Z,10.16
2022-12-23T11:32:17.196Z,10.15
2022-12-23T11:34:44.984Z,10.15
2022-12-23T11:37:23.273Z,10.11
2022-12-23T11:39:49.705Z,10.09
2022-12-23T11:42:17.283Z,10.06
2022-12-23T11:44:46.716Z,10.02
2022-12-23T11:47:24.004Z,10.00
2022-12-23T11:49:51.169Z,9.97
2022-12-23T11:52:18.613Z,9.93
2022-12-23T11:54:54.199Z,9.90
2022-12-23T11:57:22.792Z,9.88
2022-12-23T11:59:55.687Z,9.86
2022-12-23T12:02:26.724Z,9.83
2022-12-23T12:04:55.957Z,9.80
2022-12-23T12:07:22.377Z,9.81
2022-12-23T12:09:48.761Z,9.79
2022-12-23T12:12:16.680Z,9.79
2022-12-23T12:14:44.249Z,9.77
2022-12-23T12:17:16.888Z,9.78
2022-12-23T12:19:55.740Z,9.77
2022-12-23T12:22:28.742Z,9.76
2022-12-23T12:24:55.395Z,9.76
2022-12-23T12:27:26.101Z,9.76
2022-12-23T12:29:53.880Z,9.75
2022-12-23T12:32:25.669Z,9.72
2022-12-23T12:34:54.617Z,9.74
2022-12-23T12:37:25.769Z,9.72
2022-12-23T12:39:53.400Z,9.72
2022-12-23T12:42:24.603Z,9.70
2022-12-23T12:44:55.647Z,9.74
2022-12-23T12:47:52.649Z,9.72
2022-12-23T12:50:16.386Z,9.70
2022-12-23T12:52:43.262Z,9.69
2022-12-23T12:55:14.614Z,9.62
2022-12-23T12:57:40.950Z,9.63
2022-12-23T13:00:13.615Z,9.62
2022-12-23T13:02:49.300Z,9.63
2022-12-23T13:05:31.228Z,9.59
2022-12-23T13:08:05.913Z,9.62
2022-12-23T13:10:36.770Z,9.60
2022-12-23T13:13:08.467Z,9.59
2022-12-23T13:15:38.177Z,9.62
2022-12-23T13:18:13.652Z,9.57
2022-12-23T13:20:43.114Z,9.57
2022-12-23T13:23:41.569Z,9.56
2022-12-23T13:26:01.484Z,9.59
2022-12-23T13:28:33.406Z,9.55
2022-12-23T13:31:03.117Z,9.55
2022-12-23T13:33:33.990Z,9.47
2022-12-23T13:36:06.359Z,9.50
2022-12-23T13:38:45.382Z,9.49
2022-12-23T13:41:16.348Z,9.46
2022-12-23T13:43:45.889Z,9.49
2022-12-23T13:46:15.653Z,9.47
2022-12-23T13:48:49.146Z,9.48
2022-12-23T13:51:19.661Z,9.44
2022-12-23T13:53:49.555Z,9.45
2022-12-23T13:56:20.463Z,9.46
2022-12-23T13:58:47.420Z,9.51
2022-12-23T14:01:21.518Z,9.53
2022-12-23T14:03:49.523Z,9.57
2022-12-23T14:06:19.917Z,9.58
2022-12-23T14:08:46.316Z,9.56
2022-12-23T14:11:15.897Z,9.59
2022-12-23T14:13:43.398Z,9.59
2022-12-23T14:16:14.729Z,9.62
2022-12-23T14:18:49.706Z,9.63
2022-12-23T14:21:21.516Z,9.68
2022-12-23T14:24:04.021Z,9.69
2022-12-23T14:26:39.543Z,9.72
2022-12-23T14:29:15.274Z,9.74
2022-12-23T14:31:44.529Z,9.76
2022-12-23T14:34:26.029Z,9.80
2022-12-23T14:37:10.945Z,9.83
2022-12-23T14:39:38.708Z,9.86
2022-12-23T14:42:08.203Z,9.90
2022-12-23T14:44:47.211Z,9.93
2022-12-23T14:47:31.683Z,9.98
2022-12-23T14:50:25.424Z,10.05
2022-12-23T14:52:59.358Z,10.12
2022-12-23T14:55:43.433Z,10.21
2022-12-23T14:58:20.384Z,10.30
2022-12-23T15:00:47.575Z,10.39
2022-12-23T15:03:15.990Z,10.47
2022-12-23T15:05:42.686Z,10.55
2022-12-23T15:08:18.838Z,10.65
2022-12-23T15:10:46.591Z,10.74
2022-12-23T15:13:14.066Z,10.79
2022-12-23T15:15:50.211Z,10.85
2022-12-23T15:18:19.264Z,10.88
2022-12-23T15:20:57.223Z,10.90
2022-12-23T15:23:23.554Z,10.91
2022-12-23T15:25:54.557Z,10.95
2022-12-23T15:28:22.733Z,11.05
2022-12-23T15:30:51.250Z,11.11
2022-12-23T15:33:51.929Z,11.21
2022-12-23T15:36:06.827Z,11.40
2022-12-23T15:38:35.651Z,11.43
2022-12-23T15:41:04.208Z,11.62
2022-12-23T15:43:30.769Z,11.64
2022-12-23T15:46:06.841Z,11.78
2022-12-23T15:48:33.667Z,11.82
2022-12-23T15:51:03.270Z,11.86
2022-12-23T15:53:32.642Z,12.01
2022-12-23T15:56:00.399Z,12.10
2022-12-23T15:58:28.842Z,12.10
2022-12-23T16:00:56.352Z,12.13
2022-12-23T16:03:25.393Z,12.17
2022-12-23T16:05:52.189Z,12.28
2022-12-23T16:08:28.484Z,12.32
2022-12-23T16:10:57.209Z,12.37
2022-12-23T16:13:23.618Z,12.33
2022-12-23T16:15:51.336Z,12.33
2022-12-23T16:18:20.599Z,12.25
2022-12-23T16:20:48.682Z,12.38
2022-12-23T16:23:15.643Z,12.38
2022-12-23T16:25:48.550Z,12.40
2022-12-23T16:28:18.653Z,12.48
2022-12-23T16:30:46.643Z,12.49
2022-12-23T16:33:26.734Z,12.45
2022-12-23T16:35:53.520Z,12.41
2022-12-23T16:38:20.447Z,12.36
2022-12-23T16:40:47.589Z,12.34
2022-12-23T16:43:14.829Z,12.29
2022-12-23T16:45:41.871Z,12.40
2022-12-23T16:48:10.208Z,12.32
2022-12-23T16:50:38.015Z,12.23
2022-12-23T16:53:04.344Z,12.19
2022-12-23T16:55:30.643Z,12.13
2022-12-23T16:57:56.976Z,12.13
2022-12-23T17:00:23.482Z,12.31
2022-12-23T17:02:49.892Z,12.14
2022-12-23T17:05:17.040Z,12.31
2022-12-23T17:07:45.793Z,12.22
2022-12-23T17:10:12.871Z,12.15
2022-12-23T17:12:39.176Z,12.11
2022-12-23T17:15:06.431Z,12.13
2022-12-23T17:17:32.805Z,12.13
2022-12-23T17:19:59.188Z,12.15
2022-12-23T17:22:25.558Z,12.19
2022-12-23T17:24:53.228Z,12.06
2022-12-23T17:27:20.139Z,12.06
2022-12-23T17:29:46.613Z,12.02
2022-12-23T17:32:14.003Z,12.03
2022-12-23T17:34:40.383Z,12.00
2022-12-23T17:37:12.455Z,12.04
2022-12-23T17:39:38.796Z,12.02
2022-12-23T17:42:06.447Z,11.93
2022-12-23T17:44:32.780Z,11.90
2022-12-23T17:46:59.100Z,11.84
2022-12-23T17:49:25.423Z,11.82
2022-12-23T17:51:51.741Z,11.86
2022-12-23T17:54:21.165Z,11.86
2022-12-23T17:56:47.453Z,11.90
2022-12-23T17:59:15.305Z,11.92
2022-12-23T18:01:41.652Z,11.82
2022-12-23T18:04:08.020Z,11.81
2022-12-23T18:06:34.354Z,11.84
2022-12-23T18:09:00.637Z,11.90
2022-12-23T18:11:30.031Z,11.88
2022-12-23T18:13:56.446Z,11.83
2022-12-23T18:16:24.165Z,11.87
2022-12-23T18:18:50.572Z,11.80
2022-12-23T18:21:20.329Z,11.74
2022-12-23T18:23:46.654Z,11.78
2022-12-23T18:26:13.656Z,11.72
2022-12-23T18:28:39.939Z,11.71
2022-12-23T18:31:06.518Z,11.66
2022-12-23T18:33:34.259Z,11.59
2022-12-23T18:36:00.595Z,11.55
2022-12-23T18:38:26.916Z,11.52
2022-12-23T18:40:54.191Z,11.56
2022-12-23T18:43:21.664Z,11.63
2022-12-23T18:45:52.719Z,11.64
2022-12-23T18:48:19.768Z,11.68
2022-12-23T18:50:47.439Z,11.71
2022-12-23T18:53:23.105Z,11.72
2022-12-23T18:55:50.605Z,11.70
2022-12-23T18:58:17.188Z,11.71
2022-12-23T19:00:44.049Z,11.71
2022-12-23T19:03:18.436Z,11.79
2022-12-23T19:05:46.754Z,11.74
2022-12-23T19:08:14.404Z,11.72
2022-12-23T19:10:41.008Z,11.70
2022-12-23T19:13:08.971Z,11.83
2022-12-23T19:15:35.341Z,11.77
2022-12-23T19:18:01.842Z,11.72
2022-12-23T19:20:28.205Z,11.72
2022-12-23T19:22:54.522Z,11.71
2022-12-23T19:25:22.170Z,11.69
2022-12-23T19:27:48.487Z,11.65
2022-12-23T19:30:15.650Z,11.67
2022-12-23T19:32:41.999Z,11.57
2022-12-23T19:35:11.614Z,11.56
2022-12-23T19:37:37.914Z,11.67
2022-12-23T19:40:04.717Z,11.59
2022-12-23T19:42:32.415Z,11.57
2022-12-23T19:44:58.745Z,11.56
2022-12-23T19:47:25.068Z,11.54
2022-12-23T19:49:51.406Z,11.44
2022-12-23T19:52:17.732Z,11.34
2022-12-23T19:54:44.080Z,11.40
2022-12-23T19:57:10.390Z,11.30
2022-12-23T19:59:38.239Z,11.27
2022-12-23T20:02:04.781Z,11.30
2022-12-23T20:04:31.189Z,11.40
2022-12-23T20:06:57.523Z,11.40
2022-12-23T20:09:26.425Z,11.45
2022-12-23T20:11:52.838Z,11.41
2022-12-23T20:14:20.396Z,11.48
2022-12-23T20:16:50.661Z,11.53
2022-12-23T20:19:17.824Z,11.47
2022-12-23T20:21:44.351Z,11.50
2022-12-23T20:24:10.960Z,11.50
2022-12-23T20:26:37.429Z,11.50
2022-12-23T20:29:03.893Z,11.55
2022-12-23T20:31:30.801Z,11.49
2022-12-23T20:33:58.606Z,11.57
2022-12-23T20:36:25.890Z,11.53
2022-12-23T20:38:52.637Z,11.53
2022-12-23T20:41:19.792Z,11.49
2022-12-23T20:44:02.888Z,11.57
2022-12-23T20:46:32.702Z,11.59
2022-12-23T20:49:00.538Z,11.54
2022-12-23T20:51:26.885Z,11.51
2022-12-23T20:53:53.981Z,11.60
2022-12-23T20:56:20.929Z,11.56
2022-12-23T20:58:47.379Z,11.43
2022-12-23T21:01:13.784Z,11.42
2022-12-23T21:03:40.379Z,11.44
2022-12-23T21:06:08.837Z,11.44
2022-12-23T21:08:35.888Z,11.39
2022-12-23T21:11:02.571Z,11.38
2022-12-23T21:13:29.192Z,11.36
2022-12-23T21:15:59.862Z,11.38
2022-12-23T21:18:26.193Z,11.36
2022-12-23T21:20:52.479Z,11.28
2022-12-23T21:23:20.191Z,11.25
2022-12-23T21:25:46.538Z,11.24
2022-12-23T21:28:12.890Z,11.24
2022-12-23T21:30:39.262Z,11.38
2022-12-23T21:33:05.598Z,11.40
2022-12-23T21:35:31.918Z,11.34
2022-12-23T21:37:58.212Z,11.35
2022-12-23T21:40:25.963Z,11.40
2022-12-23T21:42:52.255Z,11.38
2022-12-23T21:45:19.155Z,11.38
2022-12-23T21:47:45.509Z,11.41
2022-12-23T21:50:11.878Z,11.34
2022-12-23T21:52:38.198Z,11.33
2022-12-23T21:55:04.834Z,11.32
2022-12-23T21:57:32.515Z,11.30
2022-12-23T21:59:58.832Z,11.34
2022-12-23T22:02:25.205Z,11.23
2022-12-23T22:04:51.505Z,11.24
2022-12-23T22:07:17.769Z,11.27
2022-12-23T22:09:44.082Z,11.29
2022-12-23T22:12:10.399Z,11.31
2022-12-23T22:14:38.172Z,11.26
2022-12-23T22:17:04.491Z,11.29
2022-12-23T22:19:30.809Z,11.39
2022-12-23T22:21:57.106Z,11.38
2022-12-23T22:24:23.541Z,11.38
2022-12-23T22:26:49.886Z,11.38
2022-12-23T22:29:16.225Z,11.33
2022-12-23T22:31:45.505Z,11.25
2022-12-23T22:34:12.880Z,11.30
2022-12-23T22:36:39.317Z,11.34
2022-12-23T22:39:07.567Z,11.22
2022-12-23T22:41:34.593Z,11.26
2022-12-23T22:44:00.944Z,11.19
2022-12-23T22:46:27.886Z,11.20
2022-12-23T22:48:55.664Z,11.22
2022-12-23T22:51:22.630Z,11.26
2022-12-23T22:53:48.999Z,11.13
2022-12-23T22:56:16.401Z,11.18
2022-12-23T22:58:42.831Z,11.19
2022-12-23T23:01:17.435Z,11.20
2022-12-23T23:03:43.786Z,11.23
2022-12-23T23:06:11.515Z,11.14
2022-12-23T23:08:37.837Z,11.02
2022-12-23T23:11:04.760Z,10.99
2022-12-23T23:13:32.298Z,10.99
2022-12-23T23:15:59.335Z,10.92
2022-12-23T23:18:26.033Z,10.88
2022-12-23T23:20:52.366Z,10.93
2022-12-23T23:23:20.198Z,10.92
2022-12-23T23:25:46.632Z,10.85
2022-12-23T23:28:12.968Z,10.78
2022-12-23T23:30:39.609Z,10.72
2022-12-23T23:33:05.999Z,10.71
2022-12-23T23:35:32.329Z,10.66
2022-12-23T23:37:58.735Z,10.61
2022-12-23T23:40:26.487Z,10.51
2022-12-23T23:42:52.869Z,10.42
2022-12-23T23:45:19.250Z,10.39
2022-12-23T23:47:45.548Z,10.42
2022-12-23T23:50:11.917Z,10.43
2022-12-23T23:52:38.239Z,10.43
2022-12-23T23:55:04.951Z,10.51
2022-12-23T23:57:32.614Z,10.42
2022-12-23T23:59:58.921Z,10.37
